sensor_id;sensor_type;location;lat;lon;timestamp;pressure;altitude;pressure_sealevel;temperature;humidity
69402;BME280;56589;51.992;5.924;2023-01-29T00:02:26;102416.91;;;1.85;70.49
69402;BME280;56589;51.992;5.924;2023-01-29T00:04:52;102412.59;;;1.82;70.17
69402;BME280;56589;51.992;5.924;2023-01-29T00:07:18;102420.38;;;1.81;70.39
69402;BME280;56589;51.992;5.924;2023-01-29T00:09:46;102410.00;;;1.76;70.33
69402;BME280;56589;51.992;5.924;2023-01-29T00:12:12;102410.00;;;1.75;70.26
69402;BME280;56589;51.992;5.924;2023-01-29T00:14:38;102411.75;;;1.73;70.44
69402;BME280;56589;51.992;5.924;2023-01-29T00:17:04;102410.88;;;1.69;70.27
69402;BME280;56589;51.992;5.924;2023-01-29T00:19:29;102418.66;;;1.67;70.34
69402;BME280;56589;51.992;5.924;2023-01-29T00:21:55;102419.53;;;1.68;70.68
69402;BME280;56589;51.992;5.924;2023-01-29T00:24:21;102413.47;;;1.67;70.67
69402;BME280;56589;51.992;5.924;2023-01-29T00:26:50;102407.44;;;1.67;70.20
69402;BME280;56589;51.992;5.924;2023-01-29T00:29:15;102400.53;;;1.67;70.42
69402;BME280;56589;51.992;5.924;2023-01-29T00:31:43;102396.22;;;1.66;70.58
69402;BME280;56589;51.992;5.924;2023-01-29T00:34:09;102390.19;;;1.66;70.57
69402;BME280;56589;51.992;5.924;2023-01-29T00:36:35;102391.91;;;1.67;70.31
69402;BME280;56589;51.992;5.924;2023-01-29T00:39:01;102375.50;;;1.66;70.47
69402;BME280;56589;51.992;5.924;2023-01-29T00:41:28;102380.72;;;1.65;70.47
69402;BME280;56589;51.992;5.924;2023-01-29T00:43:58;102385.88;;;1.65;70.27
69402;BME280;56589;51.992;5.924;2023-01-29T00:46:25;102373.78;;;1.62;70.48
69402;BME280;56589;51.992;5.924;2023-01-29T00:48:50;102375.53;;;1.60;70.72
69402;BME280;56589;51.992;5.924;2023-01-29T00:51:16;102370.34;;;1.62;70.35
69402;BME280;56589;51.992;5.924;2023-01-29T00:53:42;102365.16;;;1.62;70.43
69402;BME280;56589;51.992;5.924;2023-01-29T00:56:08;102369.47;;;1.63;70.26
69402;BME280;56589;51.992;5.924;2023-01-29T00:58:33;102368.59;;;1.64;70.41
69402;BME280;56589;51.992;5.924;2023-01-29T01:01:02;102377.25;;;1.66;70.73
69402;BME280;56589;51.992;5.924;2023-01-29T01:03:29;102378.13;;;1.65;70.55
69402;BME280;56589;51.992;5.924;2023-01-29T01:06:08;102383.28;;;1.65;70.67
69402;BME280;56589;51.992;5.924;2023-01-29T01:08:35;102388.44;;;1.63;70.40
69402;BME280;56589;51.992;5.924;2023-01-29T01:11:02;102379.84;;;1.64;70.82
69402;BME280;56589;51.992;5.924;2023-01-29T01:13:31;102383.28;;;1.66;70.29
69402;BME280;56589;51.992;5.924;2023-01-29T01:15:57;102389.31;;;1.68;70.90
69402;BME280;56589;51.992;5.924;2023-01-29T01:18:28;102384.13;;;1.68;70.44
69402;BME280;56589;51.992;5.924;2023-01-29T01:20:56;102381.53;;;1.68;70.68
69402;BME280;56589;51.992;5.924;2023-01-29T01:23:22;102372.94;;;1.66;70.61
69402;BME280;56589;51.992;5.924;2023-01-29T01:25:48;102371.19;;;1.64;70.41
69402;BME280;56589;51.992;5.924;2023-01-29T01:28:14;102369.50;;;1.64;70.62
69402;BME280;56589;51.992;5.924;2023-01-29T01:30:40;102364.31;;;1.64;70.98
69402;BME280;56589;51.992;5.924;2023-01-29T01:33:06;102363.44;;;1.65;70.70
69402;BME280;56589;51.992;5.924;2023-01-29T01:35:34;102378.09;;;1.63;70.99
69402;BME280;56589;51.992;5.924;2023-01-29T01:38:02;102369.47;;;1.61;70.70
69402;BME280;56589;51.992;5.924;2023-01-29T01:40:28;102372.94;;;1.57;70.47
69402;BME280;56589;51.992;5.924;2023-01-29T01:42:56;102366.91;;;1.54;70.74
69402;BME280;56589;51.992;5.924;2023-01-29T01:45:25;102371.22;;;1.55;71.13
69402;BME280;56589;51.992;5.924;2023-01-29T01:47:56;102377.25;;;1.55;71.04
69402;BME280;56589;51.992;5.924;2023-01-29T01:50:28;102367.75;;;1.50;70.96
69402;BME280;56589;51.992;5.924;2023-01-29T01:53:03;102365.16;;;1.45;71.04
69402;BME280;56589;51.992;5.924;2023-01-29T01:55:34;102376.41;;;1.41;71.05
69402;BME280;56589;51.992;5.924;2023-01-29T01:58:08;102375.53;;;1.39;70.94
69402;BME280;56589;51.992;5.924;2023-01-29T02:00:37;102385.03;;;1.40;71.11
69402;BME280;56589;51.992;5.924;2023-01-29T02:03:04;102384.19;;;1.41;71.16
69402;BME280;56589;51.992;5.924;2023-01-29T02:05:34;102379.00;;;1.42;70.98
69402;BME280;56589;51.992;5.924;2023-01-29T02:08:04;102380.69;;;1.39;71.02
69402;BME280;56589;51.992;5.924;2023-01-29T02:10:34;102381.59;;;1.36;70.95
69402;BME280;56589;51.992;5.924;2023-01-29T02:13:06;102376.41;;;1.33;71.17
69402;BME280;56589;51.992;5.924;2023-01-29T02:15:33;102382.47;;;1.34;71.18
69402;BME280;56589;51.992;5.924;2023-01-29T02:17:59;102385.88;;;1.31;71.14
69402;BME280;56589;51.992;5.924;2023-01-29T02:20:27;102375.53;;;1.30;71.25
69402;BME280;56589;51.992;5.924;2023-01-29T02:23:23;102375.53;;;1.31;71.10
69402;BME280;56589;51.992;5.924;2023-01-29T02:26:33;102379.84;;;1.26;71.13
69402;BME280;56589;51.992;5.924;2023-01-29T02:29:22;102379.00;;;1.21;71.21
69402;BME280;56589;51.992;5.924;2023-01-29T02:32:06;102379.84;;;1.19;71.26
69402;BME280;56589;51.992;5.924;2023-01-29T02:34:46;102375.53;;;1.19;71.42
69402;BME280;56589;51.992;5.924;2023-01-29T02:37:31;102378.13;;;1.22;71.59
69402;BME280;56589;51.992;5.924;2023-01-29T02:40:11;102361.75;;;1.23;71.72
69402;BME280;56589;51.992;5.924;2023-01-29T02:42:50;102368.63;;;1.26;71.25
69402;BME280;56589;51.992;5.924;2023-01-29T02:45:31;102366.94;;;1.28;71.19
69402;BME280;56589;51.992;5.924;2023-01-29T02:48:00;102372.09;;;1.28;71.31
69402;BME280;56589;51.992;5.924;2023-01-29T02:50:31;102377.28;;;1.29;71.36
69402;BME280;56589;51.992;5.924;2023-01-29T02:53:07;102372.09;;;1.29;71.43
69402;BME280;56589;51.992;5.924;2023-01-29T02:55:43;102382.44;;;1.31;71.53
69402;BME280;56589;51.992;5.924;2023-01-29T02:58:17;102385.91;;;1.30;71.34
69402;BME280;56589;51.992;5.924;2023-01-29T03:00:59;102386.75;;;1.32;71.22
69402;BME280;56589;51.992;5.924;2023-01-29T03:03:32;102386.75;;;1.29;70.97
69402;BME280;56589;51.992;5.924;2023-01-29T03:06:05;102390.19;;;1.25;71.00
69402;BME280;56589;51.992;5.924;2023-01-29T03:08:37;102380.69;;;1.21;71.27
69402;BME280;56589;51.992;5.924;2023-01-29T03:11:06;102385.00;;;1.20;71.08
69402;BME280;56589;51.992;5.924;2023-01-29T03:13:37;102386.75;;;1.23;71.61
69402;BME280;56589;51.992;5.924;2023-01-29T03:16:14;102386.75;;;1.26;71.08
69402;BME280;56589;51.992;5.924;2023-01-29T03:18:50;102385.91;;;1.28;71.33
69402;BME280;56589;51.992;5.924;2023-01-29T03:21:26;102376.41;;;1.29;71.49
69402;BME280;56589;51.992;5.924;2023-01-29T03:23:56;102361.75;;;1.28;71.40
69402;BME280;56589;51.992;5.924;2023-01-29T03:26:24;102352.25;;;1.27;71.26
69402;BME280;56589;51.992;5.924;2023-01-29T03:28:51;102358.28;;;1.26;71.43
69402;BME280;56589;51.992;5.924;2023-01-29T03:31:20;102349.69;;;1.28;71.30
69402;BME280;56589;51.992;5.924;2023-01-29T03:33:49;102351.41;;;1.31;71.50
69402;BME280;56589;51.992;5.924;2023-01-29T03:36:22;102347.97;;;1.27;71.04
69402;BME280;56589;51.992;5.924;2023-01-29T03:38:54;102343.63;;;1.25;71.35
69402;BME280;56589;51.992;5.924;2023-01-29T03:41:24;102335.00;;;1.24;71.32
69402;BME280;56589;51.992;5.924;2023-01-29T03:44:06;102325.53;;;1.23;71.50
69402;BME280;56589;51.992;5.924;2023-01-29T03:46:46;102324.69;;;1.21;71.35
69402;BME280;56589;51.992;5.924;2023-01-29T03:49:22;102319.50;;;1.21;71.69
69402;BME280;56589;51.992;5.924;2023-01-29T03:52:00;102318.63;;;1.21;71.43
69402;BME280;56589;51.992;5.924;2023-01-29T03:54:39;102322.94;;;1.22;71.66
69402;BME280;56589;51.992;5.924;2023-01-29T03:57:21;102316.91;;;1.23;71.27
69402;BME280;56589;51.992;5.924;2023-01-29T04:00:02;102310.88;;;1.22;71.63
69402;BME280;56589;51.992;5.924;2023-01-29T04:02:46;102316.03;;;1.24;71.55
69402;BME280;56589;51.992;5.924;2023-01-29T04:05:20;102310.00;;;1.25;71.52
69402;BME280;56589;51.992;5.924;2023-01-29T04:07:55;102309.16;;;1.27;71.45
69402;BME280;56589;51.992;5.924;2023-01-29T04:10:28;102318.63;;;1.28;71.37
69402;BME280;56589;51.992;5.924;2023-01-29T04:13:01;102326.38;;;1.30;71.48
69402;BME280;56589;51.992;5.924;2023-01-29T04:15:33;102323.81;;;1.28;71.55
69402;BME280;56589;51.992;5.924;2023-01-29T04:18:07;102321.22;;;1.22;71.79
69402;BME280;56589;51.992;5.924;2023-01-29T04:20:34;102310.00;;;1.23;71.36
69402;BME280;56589;51.992;5.924;2023-01-29T04:23:00;102307.41;;;1.25;71.85
69402;BME280;56589;51.992;5.924;2023-01-29T04:25:31;102305.69;;;1.27;71.67
69402;BME280;56589;51.992;5.924;2023-01-29T04:28:11;102291.88;;;1.29;71.53
69402;BME280;56589;51.992;5.924;2023-01-29T04:30:49;102287.59;;;1.28;71.60
69402;BME280;56589;51.992;5.924;2023-01-29T04:33:28;102277.25;;;1.28;71.44
69402;BME280;56589;51.992;5.924;2023-01-29T04:36:17;102281.56;;;1.28;71.50
69402;BME280;56589;51.992;5.924;2023-01-29T04:38:59;102284.97;;;1.27;71.65
69402;BME280;56589;51.992;5.924;2023-01-29T04:41:37;102294.50;;;1.22;71.31
69402;BME280;56589;51.992;5.924;2023-01-29T04:44:15;102291.03;;;1.23;71.83
69402;BME280;56589;51.992;5.924;2023-01-29T04:46:48;102289.31;;;1.23;71.63
69402;BME280;56589;51.992;5.924;2023-01-29T04:49:34;102288.44;;;1.24;71.81
69402;BME280;56589;51.992;5.924;2023-01-29T04:52:11;102287.56;;;1.21;71.29
69402;BME280;56589;51.992;5.924;2023-01-29T04:54:50;102280.72;;;1.15;71.87
69402;BME280;56589;51.992;5.924;2023-01-29T04:57:28;102278.97;;;1.14;71.82
69402;BME280;56589;51.992;5.924;2023-01-29T05:00:05;102276.41;;;1.15;71.66
69402;BME280;56589;51.992;5.924;2023-01-29T05:02:39;102274.66;;;1.14;71.61
69402;BME280;56589;51.992;5.924;2023-01-29T05:05:09;102273.81;;;1.17;71.68
69402;BME280;56589;51.992;5.924;2023-01-29T05:07:40;102263.44;;;1.14;71.63
69402;BME280;56589;51.992;5.924;2023-01-29T05:10:09;102264.28;;;1.14;71.77
69402;BME280;56589;51.992;5.924;2023-01-29T05:12:39;102268.63;;;1.17;71.93
69402;BME280;56589;51.992;5.924;2023-01-29T05:15:14;102268.63;;;1.15;71.85
69402;BME280;56589;51.992;5.924;2023-01-29T05:17:44;102266.03;;;1.17;71.66
69402;BME280;56589;51.992;5.924;2023-01-29T05:20:13;102257.41;;;1.18;71.64
69402;BME280;56589;51.992;5.924;2023-01-29T05:22:40;102262.59;;;1.18;72.02
69402;BME280;56589;51.992;5.924;2023-01-29T05:25:19;102256.53;;;1.18;71.66
69402;BME280;56589;51.992;5.924;2023-01-29T05:27:48;102261.72;;;1.18;71.89
69402;BME280;56589;51.992;5.924;2023-01-29T05:30:15;102260.84;;;1.19;71.95
69402;BME280;56589;51.992;5.924;2023-01-29T05:32:41;102266.03;;;1.17;71.64
69402;BME280;56589;51.992;5.924;2023-01-29T05:35:07;102262.59;;;1.17;71.75
69402;BME280;56589;51.992;5.924;2023-01-29T05:37:36;102270.34;;;1.17;72.09
69402;BME280;56589;51.992;5.924;2023-01-29T05:40:02;102272.94;;;1.17;72.02
69402;BME280;56589;51.992;5.924;2023-01-29T05:42:28;102275.53;;;1.17;71.83
69402;BME280;56589;51.992;5.924;2023-01-29T05:44:54;102276.38;;;1.17;71.81
69402;BME280;56589;51.992;5.924;2023-01-29T05:47:22;102281.53;;;1.19;72.15
69402;BME280;56589;51.992;5.924;2023-01-29T05:49:47;102279.81;;;1.19;71.64
69402;BME280;56589;51.992;5.924;2023-01-29T05:52:13;102292.75;;;1.21;71.78
69402;BME280;56589;51.992;5.924;2023-01-29T05:54:42;102280.69;;;1.23;72.14
69402;BME280;56589;51.992;5.924;2023-01-29T05:57:07;102291.88;;;1.25;71.90
69402;BME280;56589;51.992;5.924;2023-01-29T05:59:33;102283.25;;;1.26;72.13
69402;BME280;56589;51.992;5.924;2023-01-29T06:01:59;102278.97;;;1.29;71.87
69402;BME280;56589;51.992;5.924;2023-01-29T06:04:25;102277.22;;;1.30;71.85
69402;BME280;56589;51.992;5.924;2023-01-29T06:06:50;102262.56;;;1.30;71.78
69402;BME280;56589;51.992;5.924;2023-01-29T06:09:17;102251.34;;;1.33;71.87
69402;BME280;56589;51.992;5.924;2023-01-29T06:11:45;102250.47;;;1.38;72.16
69402;BME280;56589;51.992;5.924;2023-01-29T06:14:11;102251.31;;;1.39;71.75
69402;BME280;56589;51.992;5.924;2023-01-29T06:16:36;102248.72;;;1.39;71.83
69402;BME280;56589;51.992;5.924;2023-01-29T06:19:02;102253.91;;;1.39;71.72
69402;BME280;56589;51.992;5.924;2023-01-29T06:21:28;102251.31;;;1.37;71.99
69402;BME280;56589;51.992;5.924;2023-01-29T06:23:54;102251.31;;;1.37;71.81
69402;BME280;56589;51.992;5.924;2023-01-29T06:26:20;102247.03;;;1.35;71.81
69402;BME280;56589;51.992;5.924;2023-01-29T06:28:50;102245.31;;;1.34;72.15
69402;BME280;56589;51.992;5.924;2023-01-29T06:31:16;102245.28;;;1.37;71.75
69402;BME280;56589;51.992;5.924;2023-01-29T06:33:42;102237.53;;;1.38;71.96
69402;BME280;56589;51.992;5.924;2023-01-29T06:36:08;102240.13;;;1.37;72.05
69402;BME280;56589;51.992;5.924;2023-01-29T06:38:34;102242.72;;;1.37;71.98
69402;BME280;56589;51.992;5.924;2023-01-29T06:41:07;102229.78;;;1.35;71.89
69402;BME280;56589;51.992;5.924;2023-01-29T06:43:34;102233.22;;;1.36;71.86
69402;BME280;56589;51.992;5.924;2023-01-29T06:46:05;102233.22;;;1.36;72.08
69402;BME280;56589;51.992;5.924;2023-01-29T06:48:32;102242.72;;;1.37;71.55
69402;BME280;56589;51.992;5.924;2023-01-29T06:51:00;102234.97;;;1.35;71.69
69402;BME280;56589;51.992;5.924;2023-01-29T06:53:27;102231.50;;;1.36;71.83
69402;BME280;56589;51.992;5.924;2023-01-29T06:55:53;102247.88;;;1.38;72.02
69402;BME280;56589;51.992;5.924;2023-01-29T06:58:20;102251.34;;;1.40;71.84
69402;BME280;56589;51.992;5.924;2023-01-29T07:00:46;102243.56;;;1.39;72.06
69402;BME280;56589;51.992;5.924;2023-01-29T07:03:15;102249.63;;;1.39;72.05
69402;BME280;56589;51.992;5.924;2023-01-29T07:05:41;102244.44;;;1.38;71.94
69402;BME280;56589;51.992;5.924;2023-01-29T07:08:07;102241.84;;;1.38;71.89
69402;BME280;56589;51.992;5.924;2023-01-29T07:10:33;102232.34;;;1.38;71.75
69402;BME280;56589;51.992;5.924;2023-01-29T07:12:58;102235.78;;;1.39;71.58
69402;BME280;56589;51.992;5.924;2023-01-29T07:15:26;102241.84;;;1.41;71.67
69402;BME280;56589;51.992;5.924;2023-01-29T07:17:56;102240.13;;;1.40;72.06
69402;BME280;56589;51.992;5.924;2023-01-29T07:20:26;102234.09;;;1.41;71.76
69402;BME280;56589;51.992;5.924;2023-01-29T07:22:53;102238.38;;;1.42;71.76
69402;BME280;56589;51.992;5.924;2023-01-29T07:25:21;102238.38;;;1.43;71.60
69402;BME280;56589;51.992;5.924;2023-01-29T07:27:47;102235.78;;;1.45;71.59
69402;BME280;56589;51.992;5.924;2023-01-29T07:30:13;102234.06;;;1.44;71.74
69402;BME280;56589;51.992;5.924;2023-01-29T07:32:40;102231.47;;;1.44;71.61
69402;BME280;56589;51.992;5.924;2023-01-29T07:35:07;102241.81;;;1.44;71.79
69402;BME280;56589;51.992;5.924;2023-01-29T07:37:37;102240.97;;;1.47;71.64
69402;BME280;56589;51.992;5.924;2023-01-29T07:40:03;102253.88;;;1.50;71.77
69402;BME280;56589;51.992;5.924;2023-01-29T07:42:30;102247.84;;;1.51;71.52
69402;BME280;56589;51.992;5.924;2023-01-29T07:44:56;102254.75;;;1.52;71.54
69402;BME280;56589;51.992;5.924;2023-01-29T07:47:22;102242.69;;;1.52;71.85
69402;BME280;56589;51.992;5.924;2023-01-29T07:49:47;102245.25;;;1.55;71.66
69402;BME280;56589;51.992;5.924;2023-01-29T07:52:13;102241.78;;;1.56;71.63
69402;BME280;56589;51.992;5.924;2023-01-29T07:54:42;102232.31;;;1.58;71.86
69402;BME280;56589;51.992;5.924;2023-01-29T07:57:07;102236.59;;;1.61;71.79
69402;BME280;56589;51.992;5.924;2023-01-29T07:59:33;102221.91;;;1.61;71.60
69402;BME280;56589;51.992;5.924;2023-01-29T08:01:59;102216.75;;;1.61;71.92
69402;BME280;56589;51.992;5.924;2023-01-29T08:04:25;102203.78;;;1.63;71.37
69402;BME280;56589;51.992;5.924;2023-01-29T08:06:51;102194.31;;;1.65;71.59
69402;BME280;56589;51.992;5.924;2023-01-29T08:09:17;102190.00;;;1.65;71.84
69402;BME280;56589;51.992;5.924;2023-01-29T08:11:45;102191.72;;;1.65;71.47
69402;BME280;56589;51.992;5.924;2023-01-29T08:14:11;102196.88;;;1.66;71.48
69402;BME280;56589;51.992;5.924;2023-01-29T08:16:36;102196.84;;;1.69;71.27
69402;BME280;56589;51.992;5.924;2023-01-29T08:19:02;102208.94;;;1.74;71.78
69402;BME280;56589;51.992;5.924;2023-01-29T08:21:28;102207.19;;;1.76;71.32
69402;BME280;56589;51.992;5.924;2023-01-29T08:23:54;102206.31;;;1.78;71.47
69402;BME280;56589;51.992;5.924;2023-01-29T08:26:20;102206.28;;;1.81;71.58
69402;BME280;56589;51.992;5.924;2023-01-29T08:28:48;102195.94;;;1.84;71.28
69402;BME280;56589;51.992;5.924;2023-01-29T08:31:15;102202.81;;;1.87;71.46
69402;BME280;56589;51.992;5.924;2023-01-29T08:33:42;102196.75;;;1.88;70.92
69402;BME280;56589;51.992;5.924;2023-01-29T08:36:09;102190.75;;;1.89;71.29
69402;BME280;56589;51.992;5.924;2023-01-29T08:38:34;102191.59;;;1.91;71.14
69402;BME280;56589;51.992;5.924;2023-01-29T08:41:00;102192.41;;;1.93;70.86
69402;BME280;56589;51.992;5.924;2023-01-29T08:43:26;102182.03;;;1.94;71.51
69402;BME280;56589;51.992;5.924;2023-01-29T08:45:55;102172.53;;;2.00;71.61
69402;BME280;56589;51.992;5.924;2023-01-29T08:48:20;102169.06;;;2.02;70.80
69402;BME280;56589;51.992;5.924;2023-01-29T08:50:46;102165.59;;;2.03;70.97
69402;BME280;56589;51.992;5.924;2023-01-29T08:53:12;102166.44;;;2.05;71.15
69402;BME280;56589;51.992;5.924;2023-01-29T08:55:39;102164.66;;;2.12;70.89
69402;BME280;56589;51.992;5.924;2023-01-29T08:58:07;102163.78;;;2.16;70.94
69402;BME280;56589;51.992;5.924;2023-01-29T09:00:36;102163.72;;;2.23;71.00
69402;BME280;56589;51.992;5.924;2023-01-29T09:03:05;102168.00;;;2.29;70.78
69402;BME280;56589;51.992;5.924;2023-01-29T09:05:30;102174.91;;;2.32;70.53
69402;BME280;56589;51.992;5.924;2023-01-29T09:07:56;102168.00;;;2.31;70.38
69402;BME280;56589;51.992;5.924;2023-01-29T09:10:22;102168.00;;;2.32;70.59
69402;BME280;56589;51.992;5.924;2023-01-29T09:12:49;102165.38;;;2.35;70.57
69402;BME280;56589;51.992;5.924;2023-01-29T09:15:14;102162.75;;;2.40;70.27
69402;BME280;56589;51.992;5.924;2023-01-29T09:17:41;102171.38;;;2.42;70.26
69402;BME280;56589;51.992;5.924;2023-01-29T09:20:10;102167.88;;;2.43;70.06
69402;BME280;56589;51.992;5.924;2023-01-29T09:22:36;102165.31;;;2.44;70.19
69402;BME280;56589;51.992;5.924;2023-01-29T09:25:03;102165.28;;;2.46;70.33
69402;BME280;56589;51.992;5.924;2023-01-29T09:27:29;102164.41;;;2.48;70.25
69402;BME280;56589;51.992;5.924;2023-01-29T09:29:55;102165.25;;;2.52;70.21
69402;BME280;56589;51.992;5.924;2023-01-29T09:32:20;102157.44;;;2.54;70.28
69402;BME280;56589;51.992;5.924;2023-01-29T09:34:46;102166.94;;;2.55;70.11
69402;BME280;56589;51.992;5.924;2023-01-29T09:37:15;102162.63;;;2.54;69.80
69402;BME280;56589;51.992;5.924;2023-01-29T09:39:41;102164.38;;;2.52;69.58
69402;BME280;56589;51.992;5.924;2023-01-29T09:42:10;102150.53;;;2.54;69.91
69402;BME280;56589;51.992;5.924;2023-01-29T09:44:48;102166.03;;;2.59;69.95
69402;BME280;56589;51.992;5.924;2023-01-29T09:47:23;102162.56;;;2.63;69.94
69402;BME280;56589;51.992;5.924;2023-01-29T09:49:55;102164.22;;;2.67;69.88
69402;BME280;56589;51.992;5.924;2023-01-29T09:52:32;102165.06;;;2.70;69.67
69402;BME280;56589;51.992;5.924;2023-01-29T09:55:06;102163.34;;;2.71;69.88
69402;BME280;56589;51.992;5.924;2023-01-29T09:57:43;102163.38;;;2.69;69.27
69402;BME280;56589;51.992;5.924;2023-01-29T10:00:14;102166.84;;;2.68;69.32
69402;BME280;56589;51.992;5.924;2023-01-29T10:02:59;102164.22;;;2.67;69.51
69402;BME280;56589;51.992;5.924;2023-01-29T10:05:46;102159.94;;;2.66;69.53
69402;BME280;56589;51.992;5.924;2023-01-29T10:08:28;102159.06;;;2.68;69.31
69402;BME280;56589;51.992;5.924;2023-01-29T10:11:16;102157.31;;;2.69;69.43
69402;BME280;56589;51.992;5.924;2023-01-29T10:14:03;102153.81;;;2.73;69.94
69402;BME280;56589;51.992;5.924;2023-01-29T10:16:47;102158.06;;;2.80;69.58
69402;BME280;56589;51.992;5.924;2023-01-29T10:19:46;102152.81;;;2.88;69.50
69402;BME280;56589;51.992;5.924;2023-01-29T10:22:40;102151.88;;;2.93;69.55
69402;BME280;56589;51.992;5.924;2023-01-29T10:25:22;102151.00;;;2.96;69.38
69402;BME280;56589;51.992;5.924;2023-01-29T10:27:50;102145.75;;;2.99;69.47
69402;BME280;56589;51.992;5.924;2023-01-29T10:30:27;102144.03;;;3.01;69.27
69402;BME280;56589;51.992;5.924;2023-01-29T10:33:01;102154.34;;;3.04;69.11
69402;BME280;56589;51.992;5.924;2023-01-29T10:35:32;102143.97;;;3.04;68.78
69402;BME280;56589;51.992;5.924;2023-01-29T10:38:17;102144.88;;;3.01;68.39
69402;BME280;56589;51.992;5.924;2023-01-29T10:40:59;102145.75;;;2.99;68.67
69402;BME280;56589;51.992;5.924;2023-01-29T10:43:45;102137.19;;;2.94;68.61
69402;BME280;56589;51.992;5.924;2023-01-29T10:46:28;102141.53;;;2.93;68.49
69402;BME280;56589;51.992;5.924;2023-01-29T10:49:18;102128.53;;;2.92;68.55
69402;BME280;56589;51.992;5.924;2023-01-29T10:52:07;102121.63;;;2.91;68.45
69402;BME280;56589;51.992;5.924;2023-01-29T10:54:59;102113.84;;;2.91;68.45
69402;BME280;56589;51.992;5.924;2023-01-29T10:57:47;102108.63;;;2.92;68.23
69402;BME280;56589;51.992;5.924;2023-01-29T11:00:25;102114.69;;;2.93;68.58
69402;BME280;56589;51.992;5.924;2023-01-29T11:03:12;102107.75;;;2.96;68.36
69402;BME280;56589;51.992;5.924;2023-01-29T11:05:44;102102.53;;;2.98;68.20
69402;BME280;56589;51.992;5.924;2023-01-29T11:08:20;102094.72;;;3.01;68.33
69402;BME280;56589;51.992;5.924;2023-01-29T11:10:57;102083.47;;;3.02;68.06
69402;BME280;56589;51.992;5.924;2023-01-29T11:13:36;102088.63;;;3.03;67.89
69402;BME280;56589;51.992;5.924;2023-01-29T11:16:08;102079.09;;;3.04;68.01
69402;BME280;56589;51.992;5.924;2023-01-29T11:18:49;102072.19;;;3.06;67.82
69402;BME280;56589;51.992;5.924;2023-01-29T11:21:20;102059.19;;;3.08;67.74
69402;BME280;56589;51.992;5.924;2023-01-29T11:23:49;102066.97;;;3.08;67.82
69402;BME280;56589;51.992;5.924;2023-01-29T11:26:17;102066.13;;;3.07;67.85
69402;BME280;56589;51.992;5.924;2023-01-29T11:28:49;102052.22;;;3.10;68.29
69402;BME280;56589;51.992;5.924;2023-01-29T11:31:18;102050.41;;;3.16;67.96
69402;BME280;56589;51.992;5.924;2023-01-29T11:33:46;102040.03;;;3.18;67.83
69402;BME280;56589;51.992;5.924;2023-01-29T11:36:28;102033.88;;;3.25;67.94
69402;BME280;56589;51.992;5.924;2023-01-29T11:39:09;102037.31;;;3.27;67.83
69402;BME280;56589;51.992;5.924;2023-01-29T11:41:43;102036.38;;;3.31;68.10
69402;BME280;56589;51.992;5.924;2023-01-29T11:44:21;102031.97;;;3.38;67.61
69402;BME280;56589;51.992;5.924;2023-01-29T11:46:52;102030.16;;;3.41;67.67
69402;BME280;56589;51.992;5.924;2023-01-29T11:49:22;102017.16;;;3.44;67.51
69402;BME280;56589;51.992;5.924;2023-01-29T11:51:56;102014.53;;;3.46;67.81
69402;BME280;56589;51.992;5.924;2023-01-29T11:54:28;102013.66;;;3.47;67.16
69402;BME280;56589;51.992;5.924;2023-01-29T11:56:58;102009.31;;;3.47;66.73
69402;BME280;56589;51.992;5.924;2023-01-29T11:59:41;102002.41;;;3.46;67.51
69402;BME280;56589;51.992;5.924;2023-01-29T12:05:06;101997.22;;;3.46;67.15
69402;BME280;56589;51.992;5.924;2023-01-29T12:07:41;101989.47;;;3.45;67.17
69402;BME280;56589;51.992;5.924;2023-01-29T12:10:28;101988.53;;;3.47;67.65
69402;BME280;56589;51.992;5.924;2023-01-29T12:13:03;101986.75;;;3.51;67.30
69402;BME280;56589;51.992;5.924;2023-01-29T12:15:33;101985.88;;;3.52;67.38
69402;BME280;56589;51.992;5.924;2023-01-29T12:18:03;101977.19;;;3.53;67.18
69402;BME280;56589;51.992;5.924;2023-01-29T12:20:40;101976.31;;;3.54;67.16
69402;BME280;56589;51.992;5.924;2023-01-29T12:23:20;101964.22;;;3.54;67.39
69402;BME280;56589;51.992;5.924;2023-01-29T12:25:59;101969.41;;;3.53;67.03
69402;BME280;56589;51.992;5.924;2023-01-29T12:28:38;101965.19;;;3.46;67.35
69402;BME280;56589;51.992;5.924;2023-01-29T12:31:19;101967.88;;;3.43;67.09
69402;BME280;56589;51.992;5.924;2023-01-29T12:33:57;101967.00;;;3.41;67.50
69402;BME280;56589;51.992;5.924;2023-01-29T12:36:32;101952.38;;;3.37;67.23
69402;BME280;56589;51.992;5.924;2023-01-29T12:39:05;101938.50;;;3.38;67.13
69402;BME280;56589;51.992;5.924;2023-01-29T12:41:38;101946.34;;;3.36;67.49
69402;BME280;56589;51.992;5.924;2023-01-29T12:44:13;101928.09;;;3.39;67.68
69402;BME280;56589;51.992;5.924;2023-01-29T12:46:51;101928.06;;;3.41;67.58
69402;BME280;56589;51.992;5.924;2023-01-29T12:49:23;101920.31;;;3.39;67.68
69402;BME280;56589;51.992;5.924;2023-01-29T12:51:57;101921.19;;;3.38;67.87
69402;BME280;56589;51.992;5.924;2023-01-29T12:54:33;101915.16;;;3.38;67.77
69402;BME280;56589;51.992;5.924;2023-01-29T12:57:08;101903.88;;;3.39;67.62
69402;BME280;56589;51.992;5.924;2023-01-29T12:59:43;101906.41;;;3.43;67.99
69402;BME280;56589;51.992;5.924;2023-01-29T13:02:34;101899.41;;;3.48;67.93
69402;BME280;56589;51.992;5.924;2023-01-29T13:10:17;101882.09;;;3.49;67.91
69402;BME280;56589;51.992;5.924;2023-01-29T13:12:53;101874.31;;;3.47;67.75
69402;BME280;56589;51.992;5.924;2023-01-29T13:15:28;101878.69;;;3.45;68.01
69402;BME280;56589;51.992;5.924;2023-01-29T13:21:16;101862.28;;;3.43;68.10
69402;BME280;56589;51.992;5.924;2023-01-29T13:23:48;101852.72;;;3.45;68.09
69402;BME280;56589;51.992;5.924;2023-01-29T13:26:17;101860.47;;;3.47;68.13
69402;BME280;56589;51.992;5.924;2023-01-29T13:28:44;101852.69;;;3.47;67.89
69402;BME280;56589;51.992;5.924;2023-01-29T13:31:17;101852.72;;;3.45;67.99
69402;BME280;56589;51.992;5.924;2023-01-29T13:34:00;101845.00;;;3.42;68.11
69402;BME280;56589;51.992;5.924;2023-01-29T13:36:36;101834.66;;;3.39;68.51